Time;durP1;ratioP1;P1;durP2;ratioP2;P2;SDS_P1;SDS_P2;PMS_P1;PMS_P2;Temp;Humidity;BMP_temperature;BMP_pressure;BME280_temperature;BME280_humidity;BME280_pressure;Samples;Min_cycle;Max_cycle;Signal;HPM_P1;HPM_P2
2023/01/24 00:00:16;;;;;;;;;;;;;;;;;;5046675;28;43602;-74
2023/01/24 00:02:42;;;;;;;;;;;;;;;;;;5047152;28;42897;-73
2023/01/24 00:05:08;;;;;;;;;;;;;;;;;;5047773;28;42849;-74
2023/01/24 00:07:33;;;;;;;;;;;;;;;;;;5047604;28;42877;-74
2023/01/24 00:09:59;;;;;;;;;;;;;;;;;;5046940;28;43621;-75
2023/01/24 00:12:25;;;;;;;;;;;;;;;;;;5046204;28;42927;-75
2023/01/24 00:14:53;;;;;;;;;;;;;;;;;;5046066;28;43439;-74
2023/01/24 00:17:19;;;;;;;;;;;;;;;;;;5046684;28;43001;-74
2023/01/24 00:19:45;;;;;;;;;;;;;;;;;;5044609;28;43950;-73
2023/01/24 00:22:11;;;;;;;;;;;;;;;;;;5045172;28;42867;-73
2023/01/24 00:24:37;;;;;;;;;;;;;;;;;;5046306;28;43628;-72
2023/01/24 00:27:03;;;;;;;;;;;;;;;;;;5047467;28;43145;-74
2023/01/24 00:29:28;;;;;;;;;;;;;;;;;;5028029;28;42948;-73
2023/01/24 00:31:54;;;;;;;;;;;;;;;;;;5046686;28;42948;-74
2023/01/24 00:34:20;;;;;;;;;;;;;;;;;;5046461;28;43101;-72
2023/01/24 00:36:46;;;;;;;;;;;;;;;;;;5047098;28;42896;-73
2023/01/24 00:39:12;;;;;;;;;;;;;;;;;;5047030;28;43490;-73
2023/01/24 00:41:38;;;;;;;;;;;;;;;;;;5046924;28;43169;-72
2023/01/24 00:44:04;;;;;;;;;;;;;;;;;;5035939;28;43778;-73
2023/01/24 00:46:30;;;;;;;;;;;;;;;;;;5046073;28;42988;-72
2023/01/24 00:48:56;;;;;;;;;;;;;;;;;;5045854;28;42963;-74
2023/01/24 00:51:21;;;;;;;;;;;;;;;;;;5045543;28;42959;-73
2023/01/24 00:53:47;;;;;;;;;;;;;;;;;;5046337;28;42942;-73
2023/01/24 00:56:13;;;;;;;;;;;;;;;;;;5046519;28;42904;-73
2023/01/24 00:58:39;;;;;;;;;;;;;;;;;;5046009;28;42791;-73
2023/01/24 01:01:05;;;;;;;;;;;;;;;;;;5046766;28;42881;-79
2023/01/24 01:03:31;;;;;;;;;;;;;;;;;;5045814;28;43407;-80
2023/01/24 01:05:57;;;;;;;;;;;;;;;;;;5027767;28;43110;-75
2023/01/24 01:08:23;;;;;;;;;;;;;;;;;;5041524;28;42971;-74
2023/01/24 01:10:49;;;;;;;;;;;;;;;;;;5038565;28;42902;-72
2023/01/24 01:13:14;;;;;;;;;;;;;;;;;;5044812;28;43810;-73
2023/01/24 01:15:40;;;;;;;;;;;;;;;;;;5045554;28;43078;-78
2023/01/24 01:18:06;;;;;;;;;;;;;;;;;;5045593;28;43541;-76
2023/01/24 01:20:32;;;;;;;;;;;;;;;;;;5043211;28;42953;-73
2023/01/24 01:22:58;;;;;;;;;;;;;;;;;;5045963;28;42826;-79
2023/01/24 01:25:24;;;;;;;;;;;;;;;;;;5046299;28;43023;-77
2023/01/24 01:27:50;;;;;;;;;;;;;;;;;;5045147;28;43859;-72
2023/01/24 01:30:16;;;;;;;;;;;;;;;;;;5045653;28;42892;-73
2023/01/24 01:32:42;;;;;;;;;;;;;;;;;;5045549;28;42955;-73
2023/01/24 01:35:07;;;;;;;;;;;;;;;;;;5045898;28;42980;-72
2023/01/24 01:37:33;;;;;;;;;;;;;;;;;;5044620;28;43409;-75
2023/01/24 01:39:59;;;;;;;;;;;;;;;;;;5045718;28;43155;-74
2023/01/24 01:42:25;;;;;;;;;;;;;;;;;;5045637;28;43383;-73
2023/01/24 01:44:51;;;;;;;;;;;;;;;;;;5045791;28;42967;-72
2023/01/24 01:47:17;;;;;;;;;;;;;;;;;;5044103;28;42995;-72
2023/01/24 01:49:43;;;;;;;;;;;;;;;;;;5046134;28;43064;-74
2023/01/24 01:52:09;;;;;;;;;;;;;;;;;;5043807;28;43686;-72
2023/01/24 01:54:35;;;;;;;;;;;;;;;;;;5044805;28;42900;-73
2023/01/24 01:57:00;;;;;;;;;;;;;;;;;;5044594;28;43436;-73
2023/01/24 01:59:26;;;;;;;;;;;;;;;;;;5045060;28;42808;-73
2023/01/24 02:01:52;;;;;;;;;;;;;;;;;;5045040;28;43172;-77
2023/01/24 02:04:18;;;;;;;;;;;;;;;;;;5032374;28;43095;-78
2023/01/24 02:06:44;;;;;;;;;;;;;;;;;;5043820;28;42911;-73
2023/01/24 02:09:10;;;;;;;;;;;;;;;;;;5044378;28;42982;-73
2023/01/24 02:11:39;;;;;;;;;;;;;;;;;;5038281;28;43636;-79
2023/01/24 02:16:49;;;;;;;;;;;;;;;;;;5031919;28;43134;-72
2023/01/24 02:19:15;;;;;;;;;;;;;;;;;;5042898;28;42923;-73
2023/01/24 02:21:41;;;;;;;;;;;;;;;;;;5039441;28;42920;-77
2023/01/24 02:24:07;;;;;;;;;;;;;;;;;;5044708;28;42979;-78
2023/01/24 02:26:32;;;;;;;;;;;;;;;;;;5043071;28;42910;-73
2023/01/24 02:28:58;;;;;;;;;;;;;;;;;;5044650;28;43004;-74
2023/01/24 02:31:24;;;;;;;;;;;;;;;;;;5043403;28;42885;-76
2023/01/24 02:33:50;;;;;;;;;;;;;;;;;;5043941;28;42869;-73
2023/01/24 02:36:16;;;;;;;;;;;;;;;;;;5043802;28;43860;-78
2023/01/24 02:38:42;;;;;;;;;;;;;;;;;;5044037;28;42889;-73
2023/01/24 02:41:08;;;;;;;;;;;;;;;;;;5043477;28;44068;-77
2023/01/24 02:43:34;;;;;;;;;;;;;;;;;;5044556;28;42809;-73
2023/01/24 02:46:00;;;;;;;;;;;;;;;;;;5043990;28;43022;-78
2023/01/24 02:48:25;;;;;;;;;;;;;;;;;;5042759;28;42905;-73
2023/01/24 02:53:36;;;;;;;;;;;;;;;;;;5042900;28;43000;-73
2023/01/24 02:58:47;;;;;;;;;;;;;;;;;;5036526;28;42875;-74
2023/01/24 03:01:14;;;;;;;;;;;;;;;;;;5024562;28;43892;-72
2023/01/24 03:03:40;;;;;;;;;;;;;;;;;;5042364;28;43291;-72
2023/01/24 03:06:06;;;;;;;;;;;;;;;;;;5043105;28;42975;-72
2023/01/24 03:08:32;;;;;;;;;;;;;;;;;;5043700;28;43055;-73
2023/01/24 03:10:58;;;;;;;;;;;;;;;;;;5039999;28;43367;-77
2023/01/24 03:35:21;;;;;;;;;;;;;;;;;;5040593;28;42967;-72
2023/01/24 03:40:32;;;;;;;;;;;;;;;;;;5050191;28;43024;-73
2023/01/24 03:42:58;;;;;;;;;;;;;;;;;;5050170;28;42889;-72
2023/01/24 03:45:24;;;;;;;;;;;;;;;;;;5048028;28;42746;-73
2023/01/24 03:47:55;;;;;;;;;;;;;;;;;;5050299;28;42963;-73
2023/01/24 03:53:06;;;;;;;;;;;;;;;;;;5049509;28;42964;-78
2023/01/24 03:55:31;;;;;;;;;;;;;;;;;;5027655;28;43072;-77
2023/01/24 03:57:58;;;;;;;;;;;;;;;;;;5048571;28;42912;-78
2023/01/24 04:00:24;;;;;;;;;;;;;;;;;;5049591;28;42869;-78
2023/01/24 04:02:49;;;;;;;;;;;;;;;;;;5047583;28;42925;-74
2023/01/24 04:05:15;;;;;;;;;;;;;;;;;;5039176;28;43140;-73
2023/01/24 04:07:41;;;;;;;;;;;;;;;;;;5049687;28;42889;-74
2023/01/24 04:10:07;;;;;;;;;;;;;;;;;;5045746;28;43414;-73
2023/01/24 04:12:33;;;;;;;;;;;;;;;;;;5042110;28;43582;-73
2023/01/24 04:14:59;;;;;;;;;;;;;;;;;;5048396;28;43195;-73
2023/01/24 04:17:25;;;;;;;;;;;;;;;;;;5048968;28;42971;-72
2023/01/24 04:19:51;;;;;;;;;;;;;;;;;;5049349;28;43014;-73
2023/01/24 04:22:17;;;;;;;;;;;;;;;;;;5049093;28;43029;-73
2023/01/24 04:24:43;;;;;;;;;;;;;;;;;;5049509;28;42913;-74
2023/01/24 04:27:09;;;;;;;;;;;;;;;;;;5048743;28;43567;-73
2023/01/24 04:29:35;;;;;;;;;;;;;;;;;;5048705;28;43016;-73
2023/01/24 04:32:01;;;;;;;;;;;;;;;;;;5048249;28;42967;-74
2023/01/24 04:34:27;;;;;;;;;;;;;;;;;;5049684;28;43046;-72
2023/01/24 04:36:53;;;;;;;;;;;;;;;;;;5048377;28;42957;-73
2023/01/24 04:39:19;;;;;;;;;;;;;;;;;;5047941;28;43277;-73
2023/01/24 04:41:45;;;;;;;;;;;;;;;;;;5047325;28;42914;-73
2023/01/24 04:44:11;;;;;;;;;;;;;;;;;;5046254;28;43165;-72
2023/01/24 04:46:37;;;;;;;;;;;;;;;;;;5044773;28;43429;-72
2023/01/24 04:49:03;;;;;;;;;;;;;;;;;;5045334;28;42911;-73
2023/01/24 04:51:29;;;;;;;;;;;;;;;;;;5045963;28;43030;-73
2023/01/24 04:53:55;;;;;;;;;;;;;;;;;;5044480;28;42961;-72
2023/01/24 04:56:21;;;;;;;;;;;;;;;;;;5045846;28;43573;-73
2023/01/24 04:58:46;;;;;;;;;;;;;;;;;;5046209;28;43090;-72
2023/01/24 05:01:12;;;;;;;;;;;;;;;;;;5044895;28;43015;-72
2023/01/24 05:03:38;;;;;;;;;;;;;;;;;;5045012;28;43046;-72
2023/01/24 05:06:04;;;;;;;;;;;;;;;;;;5045828;28;44130;-72
2023/01/24 05:08:30;;;;;;;;;;;;;;;;;;5043502;28;43050;-72
2023/01/24 05:10:56;;;;;;;;;;;;;;;;;;5038766;28;43111;-72
2023/01/24 05:13:22;;;;;;;;;;;;;;;;;;5033517;28;43039;-73
2023/01/24 05:15:48;;;;;;;;;;;;;;;;;;5042535;28;42907;-76
2023/01/24 05:18:14;;;;;;;;;;;;;;;;;;5039682;28;42905;-74
2023/01/24 05:20:39;;;;;;;;;;;;;;;;;;5036027;28;42992;-74
2023/01/24 05:23:05;;;;;;;;;;;;;;;;;;5041201;28;43830;-74
2023/01/24 05:25:31;;;;;;;;;;;;;;;;;;5030444;28;43927;-75
2023/01/24 05:27:57;;;;;;;;;;;;;;;;;;5031830;28;43228;-75
2023/01/24 05:30:23;;;;;;;;;;;;;;;;;;5011232;28;43596;-75
2023/01/24 05:32:49;;;;;;;;;;;;;;;;;;5035717;28;42984;-75
2023/01/24 05:35:15;;;;;;;;;;;;;;;;;;5043973;28;43039;-74
2023/01/24 05:37:41;;;;;;;;;;;;;;;;;;5043852;28;42979;-75
2023/01/24 05:40:07;;;;;;;;;;;;;;;;;;5043836;28;43998;-78
2023/01/24 05:42:33;;;;;;;;;;;;;;;;;;5027090;28;42912;-77
2023/01/24 05:44:59;;;;;;;;;;;;;;;;;;5045052;28;43091;-75
2023/01/24 05:47:25;;;;;;;;;;;;;;;;;;5045626;28;42999;-75
2023/01/24 05:49:50;;;;;;;;;;;;;;;;;;5044423;28;42978;-74
2023/01/24 05:52:20;;;;;;;;;;;;;;;;;;5044097;28;42935;-75
2023/01/24 05:54:46;;;;;;;;;;;;;;;;;;5042361;28;43554;-74
2023/01/24 05:57:12;;;;;;;;;;;;;;;;;;5033025;28;42857;-75
2023/01/24 05:59:38;;;;;;;;;;;;;;;;;;5045664;28;43174;-75
2023/01/24 06:02:04;;;;;;;;;;;;;;;;;;5032159;28;43133;-74
2023/01/24 06:04:30;;;;;;;;;;;;;;;;;;5045163;28;42988;-75
2023/01/24 06:06:56;;;;;;;;;;;;;;;;;;5045659;28;42956;-74
2023/01/24 06:09:23;;;;;;;;;;;;;;;;;;5044970;28;42961;-73
2023/01/24 06:11:49;;;;;;;;;;;;;;;;;;5045427;28;42865;-73
2023/01/24 06:14:15;;;;;;;;;;;;;;;;;;5045024;28;43025;-74
2023/01/24 06:16:40;;;;;;;;;;;;;;;;;;5045506;28;42901;-75
2023/01/24 06:19:06;;;;;;;;;;;;;;;;;;5045023;28;43522;-76
2023/01/24 06:21:32;;;;;;;;;;;;;;;;;;5045175;28;43129;-74
2023/01/24 06:23:58;;;;;;;;;;;;;;;;;;5043125;28;42912;-74
2023/01/24 06:26:24;;;;;;;;;;;;;;;;;;5039910;28;42898;-74
2023/01/24 06:28:50;;;;;;;;;;;;;;;;;;5044483;28;42903;-74
2023/01/24 06:31:16;;;;;;;;;;;;;;;;;;5045469;28;42983;-75
2023/01/24 06:33:42;;;;;;;;;;;;;;;;;;5044015;28;43610;-74
2023/01/24 06:36:08;;;;;;;;;;;;;;;;;;5043607;28;42992;-75
2023/01/24 06:38:33;;;;;;;;;;;;;;;;;;5043935;28;43009;-74
2023/01/24 06:40:59;;;;;;;;;;;;;;;;;;5036246;28;43107;-76
2023/01/24 06:43:25;;;;;;;;;;;;;;;;;;5043175;28;43702;-75
2023/01/24 06:45:51;;;;;;;;;;;;;;;;;;5040260;28;43081;-75
2023/01/24 06:48:17;;;;;;;;;;;;;;;;;;5043219;28;42920;-77
2023/01/24 06:50:43;;;;;;;;;;;;;;;;;;5041833;28;43240;-75
2023/01/24 06:53:09;;;;;;;;;;;;;;;;;;5040910;28;43077;-76
2023/01/24 06:55:35;;;;;;;;;;;;;;;;;;5042969;28;42932;-74
2023/01/24 06:58:01;;;;;;;;;;;;;;;;;;5020622;28;43831;-74
2023/01/24 07:00:28;;;;;;;;;;;;;;;;;;5044109;28;43036;-76
2023/01/24 07:02:54;;;;;;;;;;;;;;;;;;5042395;28;43539;-82
2023/01/24 07:05:20;;;;;;;;;;;;;;;;;;5043284;28;42922;-83
2023/01/24 07:07:45;;;;;;;;;;;;;;;;;;5025809;28;45057;-77
2023/01/24 07:10:11;;;;;;;;;;;;;;;;;;5043428;28;42902;-77
2023/01/24 07:12:37;;;;;;;;;;;;;;;;;;5043982;28;42983;-79
2023/01/24 07:15:03;;;;;;;;;;;;;;;;;;5044116;28;42928;-77
2023/01/24 07:17:29;;;;;;;;;;;;;;;;;;5043699;28;42953;-83
2023/01/24 07:19:55;;;;;;;;;;;;;;;;;;5044288;28;42990;-82
2023/01/24 07:22:21;;;;;;;;;;;;;;;;;;5044056;28;42964;-77
2023/01/24 07:24:47;;;;;;;;;;;;;;;;;;5044666;28;42865;-80
2023/01/24 07:27:13;;;;;;;;;;;;;;;;;;5043713;28;43680;-76
2023/01/24 07:29:38;;;;;;;;;;;;;;;;;;5043611;28;42804;-76
2023/01/24 07:32:04;;;;;;;;;;;;;;;;;;5043670;28;43046;-76
2023/01/24 07:34:30;;;;;;;;;;;;;;;;;;5043583;28;42932;-77
2023/01/24 07:36:56;;;;;;;;;;;;;;;;;;5042112;28;43387;-76
2023/01/24 07:39:22;;;;;;;;;;;;;;;;;;5043822;28;42925;-76
2023/01/24 07:41:50;;;;;;;;;;;;;;;;;;5043587;28;42986;-76
2023/01/24 07:44:16;;;;;;;;;;;;;;;;;;5025383;28;43107;-77
2023/01/24 07:46:42;;;;;;;;;;;;;;;;;;5043817;28;43588;-78
2023/01/24 07:49:08;;;;;;;;;;;;;;;;;;5044363;28;42924;-76
2023/01/24 07:51:34;;;;;;;;;;;;;;;;;;5044340;28;42825;-76
2023/01/24 07:53:59;;;;;;;;;;;;;;;;;;5043435;28;42923;-82
2023/01/24 07:56:25;;;;;;;;;;;;;;;;;;5044003;28;43883;-76
2023/01/24 07:58:51;;;;;;;;;;;;;;;;;;5044195;28;42992;-79
2023/01/24 08:01:17;;;;;;;;;;;;;;;;;;5044091;28;42999;-76
2023/01/24 08:03:43;;;;;;;;;;;;;;;;;;5043668;28;42903;-76
2023/01/24 08:06:09;;;;;;;;;;;;;;;;;;5043993;28;43544;-82
2023/01/24 08:08:35;;;;;;;;;;;;;;;;;;5043888;28;42935;-76
2023/01/24 08:11:01;;;;;;;;;;;;;;;;;;5043524;28;43584;-76
2023/01/24 08:13:27;;;;;;;;;;;;;;;;;;5043446;28;42930;-83
2023/01/24 08:15:53;;;;;;;;;;;;;;;;;;5043958;28;42906;-81
2023/01/24 08:18:18;;;;;;;;;;;;;;;;;;5046951;28;42912;-83
2023/01/24 08:20:44;;;;;;;;;;;;;;;;;;5047156;28;43489;-78
2023/01/24 08:23:10;;;;;;;;;;;;;;;;;;5046494;28;43129;-78
2023/01/24 08:25:36;;;;;;;;;;;;;;;;;;5046714;28;43055;-77
2023/01/24 08:28:02;;;;;;;;;;;;;;;;;;5046464;28;43088;-78
2023/01/24 08:30:28;;;;;;;;;;;;;;;;;;5046211;28;43565;-77
2023/01/24 08:32:54;;;;;;;;;;;;;;;;;;5046855;28;42919;-82
2023/01/24 08:35:20;;;;;;;;;;;;;;;;;;5046658;28;43009;-81
2023/01/24 08:37:46;;;;;;;;;;;;;;;;;;5045395;28;42987;-78
2023/01/24 08:40:11;;;;;;;;;;;;;;;;;;5046788;28;43443;-76
2023/01/24 08:42:37;;;;;;;;;;;;;;;;;;5046650;28;42929;-81
2023/01/24 08:45:03;;;;;;;;;;;;;;;;;;5046874;28;43640;-78
2023/01/24 08:47:29;;;;;;;;;;;;;;;;;;5046783;28;43004;-79
2023/01/24 08:49:55;;;;;;;;;;;;;;;;;;5046815;28;42824;-77
2023/01/24 08:52:21;;;;;;;;;;;;;;;;;;5046333;28;42932;-77
2023/01/24 08:54:47;;;;;;;;;;;;;;;;;;5046011;28;42982;-76
2023/01/24 08:57:13;;;;;;;;;;;;;;;;;;5027966;28;43059;-83
2023/01/24 08:59:39;;;;;;;;;;;;;;;;;;5045975;28;43061;-84
2023/01/24 09:02:05;;;;;;;;;;;;;;;;;;5046276;28;43174;-83
2023/01/24 09:04:31;;;;;;;;;;;;;;;;;;5046333;28;43856;-80
2023/01/24 09:06:57;;;;;;;;;;;;;;;;;;5046580;28;43080;-78
2023/01/24 09:09:24;;;;;;;;;;;;;;;;;;5046310;28;43015;-80
2023/01/24 09:11:52;;;;;;;;;;;;;;;;;;5045789;28;43042;-76
2023/01/24 09:14:17;;;;;;;;;;;;;;;;;;5045820;28;43443;-84
2023/01/24 09:16:43;;;;;;;;;;;;;;;;;;5046419;28;42939;-80
2023/01/24 09:19:09;;;;;;;;;;;;;;;;;;5045960;28;42952;-82
2023/01/24 09:21:36;;;;;;;;;;;;;;;;;;5027300;28;43004;-77
2023/01/24 09:24:02;;;;;;;;;;;;;;;;;;5045480;28;43622;-83
2023/01/24 09:26:28;;;;;;;;;;;;;;;;;;5045557;28;43117;-78
2023/01/24 09:28:55;;;;;;;;;;;;;;;;;;5045540;28;42801;-77
2023/01/24 09:31:21;;;;;;;;;;;;;;;;;;5046153;28;43034;-80
2023/01/24 09:33:47;;;;;;;;;;;;;;;;;;5045690;28;44321;-77
2023/01/24 09:36:12;;;;;;;;;;;;;;;;;;5044322;28;43248;-77
2023/01/24 09:38:38;;;;;;;;;;;;;;;;;;5045804;28;43019;-78
2023/01/24 09:41:04;;;;;;;;;;;;;;;;;;5045534;28;42909;-76
2023/01/24 09:43:30;;;;;;;;;;;;;;;;;;5045264;28;43470;-80
2023/01/24 09:45:56;;;;;;;;;;;;;;;;;;5045342;28;42959;-75
2023/01/24 09:48:22;;;;;;;;;;;;;;;;;;5045044;28;43050;-83
2023/01/24 09:50:48;;;;;;;;;;;;;;;;;;5044836;28;42912;-76
2023/01/24 09:53:14;;;;;;;;;;;;;;;;;;5027082;28;45610;-78
2023/01/24 09:55:40;;;;;;;;;;;;;;;;;;5045038;28;43036;-82
2023/01/24 09:58:06;;;;;;;;;;;;;;;;;;5045079;28;42903;-84
2023/01/24 10:00:32;;;;;;;;;;;;;;;;;;5044905;28;42921;-82
2023/01/24 10:02:58;;;;;;;;;;;;;;;;;;5045376;28;42995;-80
2023/01/24 10:05:26;;;;;;;;;;;;;;;;;;5045321;28;42973;-77
2023/01/24 10:07:52;;;;;;;;;;;;;;;;;;5045362;28;43537;-77
2023/01/24 10:10:18;;;;;;;;;;;;;;;;;;5042620;28;43484;-82
2023/01/24 10:12:44;;;;;;;;;;;;;;;;;;5035829;28;42849;-83
2023/01/24 10:15:10;;;;;;;;;;;;;;;;;;5044967;28;43037;-77
2023/01/24 10:17:36;;;;;;;;;;;;;;;;;;5044887;28;43750;-81
2023/01/24 10:20:03;;;;;;;;;;;;;;;;;;5044647;28;43092;-77
2023/01/24 10:22:29;;;;;;;;;;;;;;;;;;5044646;28;43430;-78
2023/01/24 10:24:55;;;;;;;;;;;;;;;;;;5044450;28;42964;-83
2023/01/24 10:27:21;;;;;;;;;;;;;;;;;;5044923;28;43054;-77
2023/01/24 10:29:47;;;;;;;;;;;;;;;;;;5045012;28;43117;-82
2023/01/24 10:32:13;;;;;;;;;;;;;;;;;;5045081;28;43532;-83
2023/01/24 10:34:40;;;;;;;;;;;;;;;;;;5044570;28;42962;-77
2023/01/24 10:37:06;;;;;;;;;;;;;;;;;;5043503;28;43394;-82
2023/01/24 10:39:32;;;;;;;;;;;;;;;;;;5044075;28;43133;-76
2023/01/24 10:41:58;;;;;;;;;;;;;;;;;;5044616;28;42966;-78
2023/01/24 10:44:24;;;;;;;;;;;;;;;;;;5026218;28;43013;-85
2023/01/24 10:46:50;;;;;;;;;;;;;;;;;;5026190;28;44064;-84
2023/01/24 10:49:16;;;;;;;;;;;;;;;;;;5044921;28;42874;-85
2023/01/24 10:51:42;;;;;;;;;;;;;;;;;;5044327;28;42853;-81
2023/01/24 10:54:08;;;;;;;;;;;;;;;;;;5043400;28;43094;-85
2023/01/24 10:56:33;;;;;;;;;;;;;;;;;;5044193;28;43732;-84
2023/01/24 10:59:00;;;;;;;;;;;;;;;;;;5043772;28;43025;-80
2023/01/24 11:01:26;;;;;;;;;;;;;;;;;;5044171;28;42963;-84
2023/01/24 11:03:54;;;;;;;;;;;;;;;;;;5026366;28;43083;-83
2023/01/24 11:06:20;;;;;;;;;;;;;;;;;;5026441;28;44483;-78
2023/01/24 11:08:46;;;;;;;;;;;;;;;;;;5044134;28;42822;-77
2023/01/24 11:11:12;;;;;;;;;;;;;;;;;;5026324;28;44610;-85
2023/01/24 11:13:38;;;;;;;;;;;;;;;;;;5044374;28;43095;-81
2023/01/24 11:16:04;;;;;;;;;;;;;;;;;;5026116;28;43277;-80
2023/01/24 11:18:30;;;;;;;;;;;;;;;;;;5044111;28;43077;-79
2023/01/24 11:20:57;;;;;;;;;;;;;;;;;;5044350;28;43024;-83
2023/01/24 11:23:27;;;;;;;;;;;;;;;;;;5044517;28;42904;-83
2023/01/24 11:25:53;;;;;;;;;;;;;;;;;;5043504;28;43735;-81
2023/01/24 11:28:19;;;;;;;;;;;;;;;;;;5044243;28;42944;-77
2023/01/24 11:30:45;;;;;;;;;;;;;;;;;;5044123;28;43524;-80
2023/01/24 11:33:10;;;;;;;;;;;;;;;;;;5044362;28;42820;-84
2023/01/24 11:35:36;;;;;;;;;;;;;;;;;;5044305;28;43154;-84
2023/01/24 11:38:02;;;;;;;;;;;;;;;;;;5042595;28;42792;-83
2023/01/24 11:40:28;;;;;;;;;;;;;;;;;;5044405;28;42946;-77
2023/01/24 11:42:54;;;;;;;;;;;;;;;;;;5044017;28;43462;-77
2023/01/24 11:45:20;;;;;;;;;;;;;;;;;;5044025;28;42967;-83
2023/01/24 11:47:46;;;;;;;;;;;;;;;;;;5043904;28;42860;-84
2023/01/24 11:50:16;;;;;;;;;;;;;;;;;;5044569;28;42972;-78
2023/01/24 11:52:42;;;;;;;;;;;;;;;;;;5047009;28;42868;-84
2023/01/24 11:55:08;;;;;;;;;;;;;;;;;;5047257;28;42943;-81
2023/01/24 11:57:34;;;;;;;;;;;;;;;;;;5047204;28;42933;-77
2023/01/24 12:00:00;;;;;;;;;;;;;;;;;;5047011;28;43472;-83
2023/01/24 12:02:26;;;;;;;;;;;;;;;;;;5047314;28;43248;-84
2023/01/24 12:04:52;;;;;;;;;;;;;;;;;;5029877;28;45024;-80
2023/01/24 12:07:18;;;;;;;;;;;;;;;;;;5046675;28;42910;-79
2023/01/24 12:09:44;;;;;;;;;;;;;;;;;;5046793;28;43047;-79
2023/01/24 12:12:10;;;;;;;;;;;;;;;;;;5036587;28;43000;-76
2023/01/24 12:14:36;;;;;;;;;;;;;;;;;;5039260;28;43785;-74
2023/01/24 12:17:02;;;;;;;;;;;;;;;;;;5046574;28;43040;-79
2023/01/24 12:19:27;;;;;;;;;;;;;;;;;;5045330;28;44182;-77
2023/01/24 12:21:53;;;;;;;;;;;;;;;;;;5046511;28;42833;-75
2023/01/24 12:24:19;;;;;;;;;;;;;;;;;;5046693;28;42955;-77
2023/01/24 12:26:45;;;;;;;;;;;;;;;;;;5040517;28;43024;-75
2023/01/24 12:29:11;;;;;;;;;;;;;;;;;;5038367;28;43575;-79
2023/01/24 12:31:37;;;;;;;;;;;;;;;;;;5037496;28;42872;-79
2023/01/24 12:34:03;;;;;;;;;;;;;;;;;;5042973;28;43822;-85
2023/01/24 12:36:29;;;;;;;;;;;;;;;;;;5032083;28;43036;-76
2023/01/24 12:38:55;;;;;;;;;;;;;;;;;;5037513;28;43863;-79
2023/01/24 12:41:21;;;;;;;;;;;;;;;;;;5033768;28;43029;-82
2023/01/24 12:43:47;;;;;;;;;;;;;;;;;;5034208;28;43982;-81
2023/01/24 12:46:12;;;;;;;;;;;;;;;;;;5030189;28;42960;-82
2023/01/24 12:48:38;;;;;;;;;;;;;;;;;;5037074;28;44016;-82
2023/01/24 12:51:04;;;;;;;;;;;;;;;;;;5013545;28;43065;-83
2023/01/24 12:53:30;;;;;;;;;;;;;;;;;;5037538;28;44173;-82
2023/01/24 12:55:56;;;;;;;;;;;;;;;;;;5044823;28;43300;-85
2023/01/24 12:58:22;;;;;;;;;;;;;;;;;;5041107;28;43267;-76
2023/01/24 13:00:48;;;;;;;;;;;;;;;;;;5037561;28;43087;-76
2023/01/24 13:03:14;;;;;;;;;;;;;;;;;;5024759;28;44075;-76
2023/01/24 13:05:40;;;;;;;;;;;;;;;;;;5012725;28;42956;-84
2023/01/24 13:08:05;;;;;;;;;;;;;;;;;;5034996;28;43691;-83
2023/01/24 13:10:31;;;;;;;;;;;;;;;;;;5035386;28;43510;-78
2023/01/24 13:12:57;;;;;;;;;;;;;;;;;;5040727;28;43509;-82
2023/01/24 13:15:23;;;;;;;;;;;;;;;;;;5034024;28;43202;-85
2023/01/24 13:17:50;;;;;;;;;;;;;;;;;;5033594;28;43970;-86
2023/01/24 13:20:16;;;;;;;;;;;;;;;;;;5027235;28;42980;-81
2023/01/24 13:22:42;;;;;;;;;;;;;;;;;;5019834;28;43767;-83
2023/01/24 13:25:08;;;;;;;;;;;;;;;;;;5027403;28;43060;-85
2023/01/24 13:27:36;;;;;;;;;;;;;;;;;;5038021;28;43673;-77
2023/01/24 13:30:02;;;;;;;;;;;;;;;;;;5033755;28;42944;-84
2023/01/24 13:32:29;;;;;;;;;;;;;;;;;;5035173;28;43408;-83
2023/01/24 13:34:54;;;;;;;;;;;;;;;;;;5009754;28;42913;-79
2023/01/24 13:37:20;;;;;;;;;;;;;;;;;;5027157;28;44496;-82
2023/01/24 13:39:46;;;;;;;;;;;;;;;;;;5045245;28;42770;-85
2023/01/24 13:42:12;;;;;;;;;;;;;;;;;;5045499;28;42801;-86
2023/01/24 13:44:38;;;;;;;;;;;;;;;;;;5046252;28;42909;-84
2023/01/24 13:47:04;;;;;;;;;;;;;;;;;;5045745;28;43001;-82
2023/01/24 13:49:31;;;;;;;;;;;;;;;;;;5046248;28;43035;-81
2023/01/24 13:51:57;;;;;;;;;;;;;;;;;;5045702;28;43482;-83
2023/01/24 13:54:24;;;;;;;;;;;;;;;;;;5045164;28;42836;-78
2023/01/24 13:56:49;;;;;;;;;;;;;;;;;;5044552;28;43316;-77
2023/01/24 13:59:15;;;;;;;;;;;;;;;;;;5045427;28;42842;-78
2023/01/24 14:01:41;;;;;;;;;;;;;;;;;;5044980;28;42922;-79
2023/01/24 14:04:07;;;;;;;;;;;;;;;;;;5045907;28;42973;-77
2023/01/24 14:06:33;;;;;;;;;;;;;;;;;;5045261;28;43067;-75
2023/01/24 14:08:59;;;;;;;;;;;;;;;;;;5045180;28;42975;-76
2023/01/24 14:11:25;;;;;;;;;;;;;;;;;;5044321;28;42952;-77
2023/01/24 14:13:52;;;;;;;;;;;;;;;;;;5045262;28;42815;-84
2023/01/24 14:16:19;;;;;;;;;;;;;;;;;;5044067;28;62228;-80
2023/01/24 14:18:45;;;;;;;;;;;;;;;;;;5045541;28;43035;-78
2023/01/24 14:21:11;;;;;;;;;;;;;;;;;;5045274;28;43059;-86
2023/01/24 14:23:37;;;;;;;;;;;;;;;;;;5027331;28;43179;-87
2023/01/24 14:26:05;;;;;;;;;;;;;;;;;;5026366;28;44021;-87
2023/01/24 14:28:32;;;;;;;;;;;;;;;;;;5026488;28;43005;-86
2023/01/24 14:30:58;;;;;;;;;;;;;;;;;;5026170;28;44793;-85
2023/01/24 14:33:23;;;;;;;;;;;;;;;;;;5026432;28;42905;-83
2023/01/24 14:35:49;;;;;;;;;;;;;;;;;;5025681;28;44243;-82
2023/01/24 14:38:15;;;;;;;;;;;;;;;;;;5025232;28;42962;-84
2023/01/24 14:40:42;;;;;;;;;;;;;;;;;;5044840;28;42834;-84
2023/01/24 14:43:08;;;;;;;;;;;;;;;;;;5026198;28;43152;-84
2023/01/24 14:45:34;;;;;;;;;;;;;;;;;;5025903;28;45007;-85
2023/01/24 14:47:59;;;;;;;;;;;;;;;;;;5044181;28;42940;-86
2023/01/24 14:50:25;;;;;;;;;;;;;;;;;;5045174;28;43002;-86
2023/01/24 14:52:51;;;;;;;;;;;;;;;;;;5044974;28;42997;-78
2023/01/24 14:55:17;;;;;;;;;;;;;;;;;;5044932;28;43501;-86
2023/01/24 14:57:43;;;;;;;;;;;;;;;;;;5044380;28;42945;-86
2023/01/24 15:00:09;;;;;;;;;;;;;;;;;;5044986;28;43940;-86
2023/01/24 15:02:35;;;;;;;;;;;;;;;;;;5044722;28;42817;-77
2023/01/24 15:05:01;;;;;;;;;;;;;;;;;;5044876;28;43078;-86
2023/01/24 15:07:27;;;;;;;;;;;;;;;;;;5045243;28;42999;-78
2023/01/24 15:09:53;;;;;;;;;;;;;;;;;;5029856;28;43483;-79
2023/01/24 15:12:19;;;;;;;;;;;;;;;;;;5031510;28;43018;-79
2023/01/24 15:14:50;;;;;;;;;;;;;;;;;;5017783;28;45600;-76
2023/01/24 15:17:20;;;;;;;;;;;;;;;;;;5035262;28;43067;-75
2023/01/24 15:19:47;;;;;;;;;;;;;;;;;;5037619;28;43027;-76
2023/01/24 15:22:13;;;;;;;;;;;;;;;;;;5024151;28;43521;-76
2023/01/24 15:24:39;;;;;;;;;;;;;;;;;;5043382;28;43678;-75
2023/01/24 15:27:05;;;;;;;;;;;;;;;;;;5043283;28;42968;-76
2023/01/24 15:29:31;;;;;;;;;;;;;;;;;;5042920;28;43858;-76
2023/01/24 15:31:57;;;;;;;;;;;;;;;;;;5044475;28;42889;-76
2023/01/24 15:34:22;;;;;;;;;;;;;;;;;;5043642;28;43654;-75
2023/01/24 15:36:48;;;;;;;;;;;;;;;;;;5042602;28;42932;-76
2023/01/24 15:39:15;;;;;;;;;;;;;;;;;;5039801;28;43642;-76
2023/01/24 15:44:25;;;;;;;;;;;;;;;;;;5040704;28;42991;-75
2023/01/24 15:49:36;;;;;;;;;;;;;;;;;;5042508;28;42970;-76
2023/01/24 15:52:02;;;;;;;;;;;;;;;;;;5042514;28;43113;-75
2023/01/24 15:54:28;;;;;;;;;;;;;;;;;;5043587;28;42937;-80
2023/01/24 15:56:54;;;;;;;;;;;;;;;;;;5035684;28;42996;-76
2023/01/24 15:59:21;;;;;;;;;;;;;;;;;;5034629;28;43067;-79
2023/01/24 16:01:47;;;;;;;;;;;;;;;;;;5032210;28;42905;-78
2023/01/24 16:04:16;;;;;;;;;;;;;;;;;;5026195;28;43095;-77
2023/01/24 16:06:42;;;;;;;;;;;;;;;;;;5038471;28;42983;-77
2023/01/24 16:09:11;;;;;;;;;;;;;;;;;;5027741;28;42944;-78
2023/01/24 16:11:37;;;;;;;;;;;;;;;;;;5028729;28;42920;-78
2023/01/24 16:14:03;;;;;;;;;;;;;;;;;;5041053;28;43905;-79
2023/01/24 16:16:29;;;;;;;;;;;;;;;;;;5035757;28;42983;-81
2023/01/24 16:18:55;;;;;;;;;;;;;;;;;;5031722;28;43796;-77
2023/01/24 16:21:20;;;;;;;;;;;;;;;;;;5033117;28;42929;-79
2023/01/24 16:23:46;;;;;;;;;;;;;;;;;;5037330;28;42913;-77
2023/01/24 16:26:12;;;;;;;;;;;;;;;;;;5030766;28;43031;-79
2023/01/24 16:28:38;;;;;;;;;;;;;;;;;;5036369;28;43202;-81
2023/01/24 16:31:04;;;;;;;;;;;;;;;;;;5029088;28;43054;-82
2023/01/24 16:33:30;;;;;;;;;;;;;;;;;;5032209;28;43376;-80
2023/01/24 16:35:56;;;;;;;;;;;;;;;;;;5027875;28;43082;-79
2023/01/24 16:38:22;;;;;;;;;;;;;;;;;;5044001;28;44043;-78
2023/01/24 16:40:47;;;;;;;;;;;;;;;;;;5034862;28;42795;-77
2023/01/24 16:43:13;;;;;;;;;;;;;;;;;;5041884;28;43054;-78
2023/01/24 16:45:39;;;;;;;;;;;;;;;;;;5034660;28;43043;-80
2023/01/24 16:48:05;;;;;;;;;;;;;;;;;;5036149;28;43796;-77
2023/01/24 16:50:32;;;;;;;;;;;;;;;;;;5042185;28;42888;-77
2023/01/24 16:52:58;;;;;;;;;;;;;;;;;;5043928;28;43367;-79
2023/01/24 16:55:24;;;;;;;;;;;;;;;;;;5034610;28;43064;-77
2023/01/24 16:57:50;;;;;;;;;;;;;;;;;;5028701;28;43019;-77
2023/01/24 17:00:16;;;;;;;;;;;;;;;;;;5043438;28;43037;-76
2023/01/24 17:02:42;;;;;;;;;;;;;;;;;;5044959;28;43515;-78
2023/01/24 17:05:08;;;;;;;;;;;;;;;;;;5021381;28;42888;-78
2023/01/24 17:07:34;;;;;;;;;;;;;;;;;;5037505;28;42886;-76
2023/01/24 17:10:02;;;;;;;;;;;;;;;;;;5028556;28;43064;-76
2023/01/24 17:12:28;;;;;;;;;;;;;;;;;;5017820;28;44404;-77
2023/01/24 17:14:54;;;;;;;;;;;;;;;;;;5042610;28;43060;-78
2023/01/24 17:17:20;;;;;;;;;;;;;;;;;;5039514;28;43752;-77